createdAt,value
2019-05-15T00:01:41.025Z,84.90
2019-05-15T00:04:09.342Z,84.80
2019-05-15T00:06:39.988Z,84.90
2019-05-15T00:09:10.390Z,85.20
2019-05-15T00:11:40.831Z,85.90
2019-05-15T00:14:11.375Z,85.70
2019-05-15T00:16:42.082Z,85.60
2019-05-15T00:19:12.494Z,85.70
2019-05-15T00:21:42.930Z,86.10
2019-05-15T00:24:13.433Z,86.00
2019-05-15T00:26:43.839Z,86.40
2019-05-15T00:29:17.404Z,86.90
2019-05-15T00:31:48.534Z,86.40
2019-05-15T00:34:19.050Z,86.10
2019-05-15T00:36:49.485Z,86.10
2019-05-15T00:39:19.934Z,86.50
2019-05-15T00:41:54.583Z,86.40
2019-05-15T00:44:22.422Z,86.40
2019-05-15T00:46:52.782Z,86.40
2019-05-15T00:49:23.166Z,86.30
2019-05-15T00:51:53.592Z,86.90
2019-05-15T00:54:24.227Z,86.40
2019-05-15T00:56:54.592Z,86.40
2019-05-15T00:59:29.335Z,86.20
2019-05-15T01:01:59.300Z,87.10
2019-05-15T01:04:29.102Z,87.00
2019-05-15T01:06:59.465Z,87.00
2019-05-15T01:09:29.845Z,86.90
2019-05-15T01:12:00.205Z,87.00
2019-05-15T01:14:30.591Z,87.00
2019-05-15T01:17:01.024Z,87.10
2019-05-15T01:19:31.398Z,86.90
2019-05-15T01:22:01.798Z,86.70
2019-05-15T01:24:32.153Z,86.90
2019-05-15T01:27:02.545Z,87.00
2019-05-15T01:29:41.892Z,87.10
2019-05-15T01:32:04.991Z,86.90
2019-05-15T01:34:35.361Z,87.40
2019-05-15T01:37:05.721Z,87.70
2019-05-15T01:39:38.360Z,87.40
2019-05-15T01:42:08.414Z,87.30
2019-05-15T01:44:39.113Z,87.60
2019-05-15T01:47:09.454Z,87.90
2019-05-15T01:49:39.821Z,87.70
2019-05-15T01:52:10.184Z,87.50
2019-05-15T01:54:40.552Z,87.50
2019-05-15T01:57:10.911Z,87.40
2019-05-15T01:59:53.974Z,87.60
2019-05-15T02:02:13.374Z,87.70
2019-05-15T02:04:43.728Z,87.70
2019-05-15T02:07:14.094Z,87.70
2019-05-15T02:09:44.473Z,87.60
2019-05-15T02:12:15.673Z,87.40
2019-05-15T02:14:48.447Z,87.40
2019-05-15T02:17:18.931Z,87.80
2019-05-15T02:19:50.440Z,87.90
2019-05-15T02:22:20.817Z,87.90
2019-05-15T02:24:51.203Z,88.10
2019-05-15T02:27:21.570Z,87.90
2019-05-15T02:29:51.972Z,87.90
2019-05-15T02:32:22.334Z,88.20
2019-05-15T02:35:05.791Z,88.90
2019-05-15T02:37:36.148Z,88.00
2019-05-15T02:40:09.664Z,88.10
2019-05-15T02:42:39.983Z,88.10
2019-05-15T02:45:11.015Z,88.00
2019-05-15T02:47:41.374Z,87.90
2019-05-15T02:50:12.238Z,88.00
2019-05-15T02:52:45.456Z,88.20
2019-05-15T02:55:34.023Z,88.20
2019-05-15T02:58:04.401Z,88.40
2019-05-15T03:00:44.172Z,88.60
2019-05-15T03:03:09.485Z,88.60
2019-05-15T03:05:40.806Z,89.50
2019-05-15T03:08:11.233Z,88.70
2019-05-15T03:10:41.634Z,88.90
2019-05-15T03:13:12.103Z,89.00
2019-05-15T03:15:42.469Z,89.20
2019-05-15T03:18:12.825Z,89.30
2019-05-15T03:21:02.542Z,89.30
2019-05-15T03:23:33.012Z,89.20
2019-05-15T03:26:04.451Z,89.30
2019-05-15T03:28:35.267Z,89.40
2019-05-15T03:31:25.737Z,89.40
2019-05-15T03:33:44.862Z,89.60
2019-05-15T03:36:13.494Z,89.60
2019-05-15T03:38:42.134Z,89.80
2019-05-15T03:41:12.645Z,90.00
2019-05-15T03:43:43.085Z,89.80
2019-05-15T03:46:13.733Z,89.90
2019-05-15T03:49:03.511Z,89.60
2019-05-15T03:51:33.869Z,90.00
2019-05-15T03:54:04.305Z,90.00
2019-05-15T03:56:34.757Z,90.10
2019-05-15T03:59:05.120Z,90.20
2019-05-15T04:01:42.349Z,90.10
2019-05-15T04:04:09.617Z,89.80
2019-05-15T04:06:40.148Z,89.80
2019-05-15T04:09:10.523Z,90.10
2019-05-15T04:11:40.892Z,90.10
2019-05-15T04:14:11.274Z,90.00
2019-05-15T04:16:41.708Z,90.00
2019-05-15T04:19:12.101Z,90.00
2019-05-15T04:21:45.228Z,90.00
2019-05-15T04:24:18.828Z,90.00
2019-05-15T04:26:49.028Z,90.10
2019-05-15T04:29:31.432Z,90.10
2019-05-15T04:32:05.787Z,90.10
2019-05-15T04:34:33.866Z,90.00
2019-05-15T04:37:04.259Z,89.90
2019-05-15T04:39:34.726Z,89.90
2019-05-15T04:42:05.076Z,89.30
2019-05-15T04:44:35.456Z,88.90
2019-05-15T04:47:05.822Z,88.60
2019-05-15T04:49:39.183Z,88.00
2019-05-15T04:52:10.026Z,87.80
2019-05-15T04:54:40.889Z,87.60
2019-05-15T04:57:11.347Z,87.20
2019-05-15T04:59:41.784Z,87.40
2019-05-15T05:02:17.517Z,87.20
2019-05-15T05:04:44.239Z,87.10
2019-05-15T05:07:14.963Z,86.50
2019-05-15T05:09:45.319Z,86.40
2019-05-15T05:12:15.693Z,86.50
2019-05-15T05:14:48.283Z,85.90
2019-05-15T05:17:19.521Z,85.70
2019-05-15T05:19:51.505Z,85.20
2019-05-15T05:22:21.986Z,84.90
2019-05-15T05:24:52.372Z,82.50
2019-05-15T05:27:22.736Z,78.30
2019-05-15T05:29:53.123Z,74.70
2019-05-15T05:32:34.358Z,70.50
2019-05-15T05:34:55.940Z,69.10
2019-05-15T05:37:28.024Z,64.80
2019-05-15T05:39:58.490Z,62.80
2019-05-15T05:42:29.167Z,63.20
2019-05-15T05:44:59.614Z,58.10
2019-05-15T05:47:29.989Z,57.80
2019-05-15T05:50:00.354Z,55.60
2019-05-15T05:52:30.752Z,57.60
2019-05-15T05:55:01.118Z,56.10
2019-05-15T05:57:31.508Z,55.20
2019-05-15T06:00:01.872Z,51.00
2019-05-15T06:02:43.867Z,53.70
2019-05-15T06:05:05.262Z,51.90
2019-05-15T06:07:38.758Z,49.40
2019-05-15T06:10:09.232Z,49.30
2019-05-15T06:12:39.600Z,49.70
2019-05-15T06:15:10.315Z,51.60
2019-05-15T06:17:40.699Z,47.30
2019-05-15T06:20:11.300Z,46.00
2019-05-15T06:22:41.684Z,45.50
2019-05-15T06:25:12.141Z,43.80
2019-05-15T06:27:42.511Z,46.70
2019-05-15T06:30:20.059Z,47.10
2019-05-15T06:33:01.846Z,41.20
2019-05-15T06:35:20.344Z,40.90
2019-05-15T06:37:50.726Z,40.80
2019-05-15T06:40:21.638Z,41.40
2019-05-15T06:42:53.157Z,40.70
2019-05-15T06:45:25.228Z,41.60
2019-05-15T06:47:57.807Z,39.20
2019-05-15T06:50:38.234Z,38.10
2019-05-15T06:53:10.863Z,40.70
2019-05-15T06:55:41.438Z,38.10
2019-05-15T06:58:11.774Z,36.40
2019-05-15T07:00:42.231Z,36.90
2019-05-15T07:03:21.708Z,36.30
2019-05-15T07:05:44.714Z,38.10
2019-05-15T07:08:15.086Z,38.00
2019-05-15T07:10:45.522Z,38.00
2019-05-15T07:13:18.025Z,37.70
2019-05-15T07:15:49.590Z,37.60
2019-05-15T07:18:20.351Z,38.40
2019-05-15T07:20:50.731Z,36.40
2019-05-15T07:23:21.104Z,35.20
2019-05-15T07:25:51.479Z,36.20
2019-05-15T07:28:21.856Z,36.20
2019-05-15T07:30:52.254Z,35.20
2019-05-15T07:33:35.719Z,34.30
2019-05-15T07:35:54.714Z,34.50
2019-05-15T07:38:25.083Z,31.10
2019-05-15T07:41:00.118Z,32.80
2019-05-15T07:43:28.097Z,32.80
2019-05-15T07:45:59.166Z,33.00
2019-05-15T07:48:29.584Z,31.20
2019-05-15T07:51:00.179Z,32.10
2019-05-15T07:53:31.349Z,31.40
2019-05-15T07:56:01.901Z,33.00
2019-05-15T07:58:32.370Z,31.40
2019-05-15T08:01:05.350Z,32.70
2019-05-15T08:03:35.562Z,32.10
2019-05-15T08:06:08.589Z,34.00
2019-05-15T08:08:39.277Z,33.70
2019-05-15T08:11:20.432Z,31.30
2019-05-15T08:13:42.151Z,29.10
2019-05-15T08:16:12.554Z,30.20
2019-05-15T08:18:42.913Z,30.30
2019-05-15T08:21:13.302Z,30.00
2019-05-15T08:23:43.693Z,29.20
2019-05-15T08:26:14.059Z,28.90
2019-05-15T08:28:44.450Z,31.00
2019-05-15T08:31:14.857Z,30.10
2019-05-15T08:33:45.240Z,30.20
2019-05-15T08:36:15.610Z,28.30
2019-05-15T08:38:48.420Z,29.50
2019-05-15T08:41:18.717Z,28.30
2019-05-15T08:43:49.108Z,29.10
2019-05-15T08:46:19.552Z,29.70
2019-05-15T08:48:49.912Z,28.60
2019-05-15T08:51:20.291Z,29.90
2019-05-15T08:53:50.664Z,29.00
2019-05-15T08:56:21.054Z,29.40
2019-05-15T08:58:51.408Z,28.90
2019-05-15T09:01:28.884Z,28.90
2019-05-15T09:04:00.985Z,28.00
2019-05-15T09:06:31.745Z,29.00
2019-05-15T09:09:05.018Z,29.70
2019-05-15T09:11:40.999Z,27.80
2019-05-15T09:14:24.113Z,27.30
2019-05-15T09:16:58.275Z,26.70
2019-05-15T09:19:31.907Z,26.20
2019-05-15T09:22:05.085Z,26.10
2019-05-15T09:24:37.823Z,26.00
2019-05-15T09:27:10.127Z,25.60
2019-05-15T09:29:40.969Z,27.60
2019-05-15T09:32:14.148Z,27.50
2019-05-15T09:34:50.771Z,26.70
2019-05-15T09:37:18.026Z,28.00
2019-05-15T09:39:49.072Z,25.90
2019-05-15T09:42:19.953Z,26.10
2019-05-15T09:44:50.387Z,26.00
2019-05-15T09:47:20.786Z,24.40
2019-05-15T09:49:51.140Z,24.40
2019-05-15T09:52:23.068Z,25.10
2019-05-15T09:54:59.136Z,26.00
2019-05-15T09:57:30.259Z,26.60
2019-05-15T10:00:00.681Z,26.10
2019-05-15T10:02:32.605Z,24.70
2019-05-15T10:05:06.500Z,23.70
2019-05-15T10:07:35.254Z,23.80
2019-05-15T10:10:09.039Z,23.40
2019-05-15T10:12:39.441Z,23.30
2019-05-15T10:15:11.865Z,23.90
2019-05-15T10:17:42.538Z,25.30
2019-05-15T10:20:13.915Z,25.20
2019-05-15T10:22:44.313Z,24.20
2019-05-15T10:25:14.991Z,24.10
2019-05-15T10:27:45.385Z,24.40
2019-05-15T10:30:18.689Z,25.00
2019-05-15T10:32:48.885Z,24.30
2019-05-15T10:35:28.144Z,23.20
2019-05-15T10:37:51.792Z,24.50
2019-05-15T10:40:22.297Z,24.00
2019-05-15T10:42:52.692Z,22.90
2019-05-15T10:45:23.362Z,24.10
2019-05-15T10:47:53.763Z,24.00
2019-05-15T10:50:24.281Z,24.20
2019-05-15T10:52:54.667Z,24.40
2019-05-15T10:55:25.034Z,23.80
2019-05-15T10:57:55.434Z,23.70
2019-05-15T11:00:28.618Z,23.60
2019-05-15T11:02:58.831Z,23.60
2019-05-15T11:05:41.162Z,23.70
2019-05-15T11:08:01.355Z,24.30
2019-05-15T11:10:31.721Z,24.70
2019-05-15T11:13:02.109Z,23.60
2019-05-15T11:15:32.481Z,24.80
2019-05-15T11:18:02.872Z,24.70
2019-05-15T11:20:33.239Z,23.50
2019-05-15T11:23:03.921Z,23.80
2019-05-15T11:25:34.282Z,23.20
2019-05-15T11:28:05.103Z,23.20
2019-05-15T11:30:35.503Z,23.40
2019-05-15T11:33:05.943Z,24.00
2019-05-15T11:35:39.084Z,24.50
2019-05-15T11:38:10.112Z,25.30
2019-05-15T11:40:40.488Z,24.30
2019-05-15T11:43:10.881Z,24.80
2019-05-15T11:45:41.314Z,24.20
2019-05-15T11:48:13.735Z,25.00
2019-05-15T11:50:56.019Z,25.70
2019-05-15T11:53:28.398Z,24.60
2019-05-15T11:55:59.831Z,25.20
2019-05-15T11:58:30.432Z,25.40
2019-05-15T12:01:00.815Z,25.60
2019-05-15T12:03:31.201Z,25.60
2019-05-15T12:06:14.908Z,25.70
2019-05-15T12:08:33.766Z,24.30
2019-05-15T12:11:04.151Z,25.60
2019-05-15T12:13:34.519Z,26.60
2019-05-15T12:16:04.989Z,26.50
2019-05-15T12:18:35.356Z,26.70
2019-05-15T12:21:05.788Z,26.80
2019-05-15T12:23:38.574Z,26.90
2019-05-15T12:26:09.132Z,27.10
2019-05-15T12:31:11.872Z,27.70
2019-05-15T12:33:42.261Z,27.60
2019-05-15T12:36:12.645Z,26.80
2019-05-15T12:38:43.030Z,27.40
2019-05-15T12:39:23.671Z,27.00
2019-05-15T13:01:30.375Z,27.70
2019-05-15T13:04:00.793Z,27.70
2019-05-15T13:06:31.197Z,27.30
2019-05-15T13:09:01.593Z,27.30
2019-05-15T13:11:32.491Z,27.70
2019-05-15T13:14:03.154Z,27.30
2019-05-15T13:16:33.653Z,28.20
2019-05-15T13:19:04.139Z,27.40
2019-05-15T13:21:34.509Z,27.50
2019-05-15T13:24:07.988Z,27.90
2019-05-15T13:26:38.550Z,27.80
2019-05-15T13:29:09.355Z,27.50
2019-05-15T13:31:39.727Z,28.10
2019-05-15T13:34:10.133Z,28.40
2019-05-15T13:36:40.502Z,28.50
2019-05-15T13:39:11.050Z,28.70
2019-05-15T13:41:41.483Z,28.50
2019-05-15T13:44:11.937Z,28.70
2019-05-15T13:46:42.347Z,28.30
2019-05-15T13:49:12.735Z,28.20
2019-05-15T13:51:43.129Z,28.10
2019-05-15T13:54:13.511Z,28.60
2019-05-15T13:56:43.879Z,28.80
2019-05-15T13:59:14.276Z,28.50
2019-05-15T14:01:44.646Z,29.10
2019-05-15T14:04:15.038Z,29.20
2019-05-15T14:06:45.401Z,28.90
2019-05-15T14:09:15.790Z,29.00
2019-05-15T14:11:49.396Z,28.70
2019-05-15T14:14:18.366Z,28.90
2019-05-15T14:16:49.236Z,29.30
2019-05-15T14:19:19.831Z,29.40
2019-05-15T14:21:50.210Z,28.80
2019-05-15T14:24:21.829Z,29.00
2019-05-15T14:26:52.197Z,29.00
2019-05-15T14:29:22.621Z,29.20
2019-05-15T14:31:52.993Z,29.60
2019-05-15T14:34:23.377Z,29.20
2019-05-15T14:36:54.079Z,29.50
2019-05-15T14:39:24.564Z,29.90
2019-05-15T14:41:54.943Z,30.20
2019-05-15T14:44:27.287Z,30.50
2019-05-15T14:46:58.240Z,30.40
2019-05-15T14:49:34.617Z,31.00
2019-05-15T14:52:08.239Z,30.00
2019-05-15T14:54:33.367Z,29.90
2019-05-15T14:57:03.723Z,29.60
2019-05-15T14:59:34.431Z,29.70
2019-05-15T15:02:04.878Z,30.00
2019-05-15T15:04:35.277Z,30.50
2019-05-15T15:07:05.639Z,30.50
2019-05-15T15:09:36.036Z,31.00
2019-05-15T15:12:08.176Z,30.70
2019-05-15T15:14:38.736Z,30.60
2019-05-15T15:17:09.104Z,30.90
2019-05-15T15:19:39.499Z,30.90
2019-05-15T15:22:09.866Z,30.90
2019-05-15T15:24:40.252Z,30.80
2019-05-15T15:27:10.618Z,31.60
2019-05-15T15:29:41.159Z,30.80
2019-05-15T15:32:11.587Z,31.40
2019-05-15T15:34:41.949Z,31.70
2019-05-15T15:37:12.345Z,31.70
2019-05-15T15:39:42.765Z,31.30
2019-05-15T15:42:13.313Z,31.60
2019-05-15T15:44:43.708Z,31.00
2019-05-15T15:47:14.083Z,31.50
2019-05-15T15:49:44.481Z,31.50
2019-05-15T15:52:14.854Z,31.70
2019-05-15T15:54:45.275Z,31.40
2019-05-15T15:57:15.711Z,31.70
2019-05-15T15:59:46.111Z,31.90
2019-05-15T16:02:18.566Z,31.80
2019-05-15T16:04:48.559Z,32.20
2019-05-15T16:07:18.998Z,32.50
2019-05-15T16:09:49.462Z,32.50
2019-05-15T16:12:19.843Z,32.00
2019-05-15T16:14:50.389Z,32.10
2019-05-15T16:17:20.766Z,32.30
2019-05-15T16:19:51.155Z,32.70
2019-05-15T16:22:21.535Z,32.30
2019-05-15T16:24:51.996Z,32.30
2019-05-15T16:27:22.374Z,32.70
2019-05-15T16:29:52.783Z,32.60
2019-05-15T16:32:23.323Z,33.00
2019-05-15T16:34:53.721Z,33.50
2019-05-15T16:37:24.157Z,31.60
2019-05-15T16:39:57.208Z,32.50
2019-05-15T16:42:28.572Z,32.30
2019-05-15T16:44:58.715Z,32.40
2019-05-15T16:47:29.999Z,32.40
2019-05-15T16:50:00.398Z,33.20
2019-05-15T16:52:31.405Z,33.40
2019-05-15T16:55:01.973Z,32.70
2019-05-15T16:57:32.331Z,32.80
2019-05-15T17:00:02.727Z,32.80
2019-05-15T17:02:33.092Z,32.90
2019-05-15T17:05:04.197Z,33.00
2019-05-15T17:07:34.575Z,33.20
2019-05-15T17:10:08.123Z,33.40
2019-05-15T17:12:38.952Z,33.80
2019-05-15T17:15:11.092Z,34.00
2019-05-15T17:17:41.463Z,35.40
2019-05-15T17:20:12.640Z,36.10
2019-05-15T17:22:43.011Z,36.90
2019-05-15T17:25:13.840Z,36.90
2019-05-15T17:27:44.218Z,37.60
2019-05-15T17:30:18.207Z,37.70
2019-05-15T17:32:49.350Z,37.80
2019-05-15T17:35:20.025Z,38.00
2019-05-15T17:37:50.395Z,38.70
2019-05-15T17:40:21.503Z,38.80
2019-05-15T17:42:51.879Z,39.80
2019-05-15T17:45:22.344Z,39.30
2019-05-15T17:47:52.883Z,39.50
2019-05-15T17:50:25.001Z,39.50
2019-05-15T17:52:55.361Z,39.50
2019-05-15T17:55:27.853Z,39.60
2019-05-15T17:58:00.968Z,39.60
2019-05-15T18:00:30.391Z,39.70
2019-05-15T18:03:00.762Z,39.60
2019-05-15T18:05:31.237Z,39.70
2019-05-15T18:08:01.590Z,39.70
2019-05-15T18:10:31.992Z,40.00
2019-05-15T18:13:02.361Z,40.60
2019-05-15T18:15:33.129Z,40.60
2019-05-15T18:18:03.522Z,41.20
2019-05-15T18:20:33.908Z,40.80
2019-05-15T18:23:04.284Z,41.10
2019-05-15T18:25:34.740Z,41.90
2019-05-15T18:28:05.246Z,42.10
2019-05-15T18:30:38.881Z,41.70
2019-05-15T18:33:08.926Z,41.90
2019-05-15T18:35:39.337Z,41.60
2019-05-15T18:38:09.712Z,42.00
2019-05-15T18:40:40.116Z,42.20
2019-05-15T18:43:10.474Z,42.50
2019-05-15T18:45:40.940Z,42.50
2019-05-15T18:48:11.373Z,42.50
2019-05-15T18:50:41.936Z,42.80
2019-05-15T18:53:12.308Z,43.30
2019-05-15T18:55:42.698Z,43.50
2019-05-15T18:58:13.069Z,43.70
2019-05-15T19:00:43.715Z,43.80
2019-05-15T19:03:19.375Z,44.90
2019-05-15T19:05:47.728Z,44.60
2019-05-15T19:08:18.777Z,44.80
2019-05-15T19:10:49.315Z,45.20
2019-05-15T19:13:21.132Z,45.70
2019-05-15T19:15:51.518Z,46.70
2019-05-15T19:18:21.885Z,46.70
2019-05-15T19:20:52.284Z,47.10
2019-05-15T19:23:22.650Z,47.40
2019-05-15T19:25:53.168Z,47.80
2019-05-15T19:28:23.818Z,48.30
2019-05-15T19:30:54.280Z,48.80
2019-05-15T19:33:34.477Z,48.90
2019-05-15T19:35:56.738Z,49.40
2019-05-15T19:38:27.948Z,49.60
2019-05-15T19:41:02.996Z,50.00
2019-05-15T19:43:30.811Z,50.70
2019-05-15T19:46:01.454Z,50.50
2019-05-15T19:48:31.958Z,51.70
2019-05-15T19:51:02.469Z,51.80
2019-05-15T19:53:32.842Z,52.50
2019-05-15T19:56:03.228Z,53.00
2019-05-15T19:58:33.675Z,52.90
2019-05-15T20:01:04.074Z,53.70
2019-05-15T20:03:47.264Z,53.60
2019-05-15T20:06:08.370Z,53.60
2019-05-15T20:08:38.987Z,53.70
2019-05-15T20:11:10.517Z,53.60
2019-05-15T20:13:41.023Z,53.20
2019-05-15T20:16:11.406Z,53.80
2019-05-15T20:18:41.779Z,53.10
2019-05-15T20:21:12.160Z,53.10
2019-05-15T20:23:42.666Z,52.90
2019-05-15T20:26:13.064Z,52.90
2019-05-15T20:28:43.510Z,53.40
2019-05-15T20:31:13.900Z,53.30
2019-05-15T20:33:44.274Z,53.70
2019-05-15T20:36:17.879Z,54.10
2019-05-15T20:38:48.445Z,54.90
2019-05-15T20:41:19.084Z,55.00
2019-05-15T20:43:49.450Z,54.90
2019-05-15T20:46:19.857Z,55.90
2019-05-15T20:48:50.299Z,55.30
2019-05-15T20:51:20.694Z,55.80
2019-05-15T20:53:51.063Z,56.00
2019-05-15T20:56:21.441Z,56.10
2019-05-15T20:58:51.815Z,56.40
2019-05-15T21:01:22.214Z,56.70
2019-05-15T21:03:52.580Z,56.60
2019-05-15T21:06:22.975Z,56.70
2019-05-15T21:08:53.345Z,57.20
2019-05-15T21:11:23.727Z,56.90
2019-05-15T21:13:54.094Z,57.80
2019-05-15T21:16:24.487Z,58.00
2019-05-15T21:18:57.742Z,57.70
2019-05-15T21:21:28.307Z,58.60
2019-05-15T21:24:00.929Z,58.70
2019-05-15T21:26:30.953Z,59.10
2019-05-15T21:29:01.318Z,59.20
2019-05-15T21:31:32.147Z,59.50
2019-05-15T21:34:03.561Z,59.80
2019-05-15T21:36:35.014Z,60.20
2019-05-15T21:39:06.592Z,60.70
2019-05-15T21:41:38.772Z,60.90
2019-05-15T21:44:09.207Z,61.60
2019-05-15T21:46:39.605Z,61.00
2019-05-15T21:49:09.971Z,62.00
2019-05-15T21:51:40.353Z,62.30
2019-05-15T21:54:10.732Z,61.80
2019-05-15T21:56:41.389Z,62.30
2019-05-15T21:59:11.764Z,62.30
2019-05-15T22:01:42.565Z,62.80
2019-05-15T22:04:13.013Z,62.90
2019-05-15T22:06:43.419Z,63.00
2019-05-15T22:09:18.262Z,62.90
2019-05-15T22:11:49.749Z,64.20
2019-05-15T22:14:20.338Z,64.00
2019-05-15T22:16:50.720Z,64.20
2019-05-15T22:19:21.107Z,63.80
2019-05-15T22:21:51.489Z,64.80
2019-05-15T22:24:21.859Z,64.20
2019-05-15T22:26:52.639Z,64.70
2019-05-15T22:29:23.007Z,65.00
2019-05-15T22:31:53.442Z,64.70
2019-05-15T22:34:23.806Z,65.00
2019-05-15T22:36:54.196Z,65.80
2019-05-15T22:39:24.565Z,65.70
2019-05-15T22:41:55.232Z,65.80
2019-05-15T22:44:28.006Z,66.20
2019-05-15T22:46:58.209Z,66.20
2019-05-15T22:49:28.900Z,66.00
2019-05-15T22:51:59.310Z,65.80
2019-05-15T22:54:29.677Z,65.90
2019-05-15T22:57:00.338Z,66.80
2019-05-15T22:59:30.703Z,66.90
2019-05-15T23:02:01.086Z,66.90
2019-05-15T23:04:31.452Z,67.50
2019-05-15T23:07:01.839Z,67.70
2019-05-15T23:09:32.202Z,68.10
2019-05-15T23:12:02.778Z,67.90
2019-05-15T23:14:33.141Z,68.00
2019-05-15T23:17:03.526Z,68.30
2019-05-15T23:19:33.896Z,68.20
2019-05-15T23:22:04.291Z,68.40
2019-05-15T23:24:34.662Z,68.70
2019-05-15T23:27:05.309Z,68.70
2019-05-15T23:29:35.669Z,68.80
2019-05-15T23:32:07.850Z,69.00
2019-05-15T23:34:38.655Z,69.10
2019-05-15T23:37:10.434Z,69.10
2019-05-15T23:39:40.803Z,69.40
2019-05-15T23:42:11.193Z,69.70
2019-05-15T23:44:41.560Z,69.80
2019-05-15T23:47:11.943Z,69.90
2019-05-15T23:49:43.377Z,69.90
2019-05-15T23:52:13.777Z,69.90
2019-05-15T23:54:44.142Z,70.30
2019-05-15T23:57:14.544Z,70.20
2019-05-15T23:59:44.922Z,70.40
